Monday, October 16, 2017, 7:30 PM CDT
Back to Local

KIAB, Mcconnell Air Force Base

Location: Wichita, KS, United States Lat: 37.617
Local Time: 7:30 PM CDT ( 0:30 GMT) Lon: -97.267
Time Zone: US/Central Elev: 1371 ft

Show me the last for .
Show Decoded

2017-10-16 18:56 METAR KIAB 162356Z AUTO 19008KT 10SM CLR 16/03 A3024 RMK AO2 SLP244 T01570032
                 10207 20157 57014 =
2017-10-16 17:56 METAR KIAB 162256Z AUTO 21012KT 10SM CLR 19/03 A3026 RMK AO2 SLP249 T01880026 =
2017-10-16 16:56 METAR KIAB 162156Z AUTO 22011KT 10SM CLR 20/02 A3027 RMK AO2 SLP252 T02010024 =
2017-10-16 15:56 METAR KIAB 162056Z AUTO 22011KT 10SM CLR 21/03 A3028 RMK AO2 SLP255 T02060029 =
2017-10-16 14:56 METAR KIAB 161956Z AUTO 22012KT 10SM CLR 21/03 A3031 RMK AO2 SLP265 T02050032 $
                 =
2017-10-16 13:56 METAR KIAB 161856Z COR AUTO 20012KT 10SM CLR 20/04 A3033 RMK AO2 SLPNO T02010037
                 $ COR 1907 =
2017-10-16 12:56 METAR KIAB 161756Z 22010KT 10SM CLR 19/05 A3037 RMK AO2A SLPNO ALSTG ESTMD
                 T01920049 10192 20048 $ =
2017-10-16 11:56 METAR KIAB 161656Z 21011KT 10SM CLR 17/04 A3039 RMK AO2A SLPNO T01740040 $ =
2017-10-16 10:59 METAR KIAB 161559Z 21007KT 10SM CLR 16/03 A3040 RMK SLPNO WND DATA ESTMD ALSTG
                 ESTMD $ =
2017-10-16 09:56 METAR KIAB 161456Z 23006KT 7SM CLR 12/04 A3042 RMK AO2A SLP304 T01210043 53004 $
                 =
2017-10-16 08:56 METAR KIAB 161356Z 22006KT 7SM CLR 09/04 A3041 RMK AO2A SLP303 T00890043 $ =
2017-10-16 07:56 METAR KIAB 161256Z 22005KT 10SM CLR 05/02 A3041 RMK AO2A SLP304 T00480020 $ =
2017-10-16 06:58 METAR KIAB 161158Z 23006KT 10SM CLR 05/02 A3041 RMK SLP304 T00510018 10093 20049
                 53004 $ =
2017-10-16 05:55 METAR KIAB 161055Z 19004KT 10SM CLR 06/02 A3040 SLP299 T00560021 10093 20056
                 55002 $ =
2017-10-16 04:56 METAR KIAB 160956Z 00000KT 10SM CLR 06/03 A3040 RMK AO2A SLP298 T00620028 $ =
2017-10-16 03:56 METAR KIAB 160856Z 00000KT 10SM CLR 06/03 A3040 RMK AO2A SLP298 T00630033 50002
                 $ =
2017-10-16 02:56 METAR KIAB 160756Z 00000KT 10SM CLR 08/04 A3041 RMK AO2A SLP301 T00750041 $ =
2017-10-16 01:56 METAR KIAB 160656Z 00000KT 10SM CLR 07/03 A3040 RMK AO2A SLP299 T00740029 $ =
2017-10-16 01:26 METAR KIAB 160626Z COR 25003KT 10SM R01/3000FT CLR 09/03 A3040 RMK AO2 VIS 1/2
                 RWY19 SLP298 $ COR 0627 =
2017-10-16 01:21 METAR KIAB 160621Z AUTO 00000KT 1SM R01/2600V3500FT HZ CLR 09/03 A3040 RMK AO2
                 VIS 1/2 RWY19 SLP298 $ =
2017-10-16 01:16 METAR KIAB 160616Z AUTO 00000KT 7/8SM R01/2400V2800FT HZ CLR 08/03 A3039 RMK AO2
                 SLP295 $ =
2017-10-16 01:11 METAR KIAB 160611Z AUTO 00000KT 3/4SM R01/2400V2600FT HZ CLR 08/03 A3039 RMK AO2
                 VIS 3/4V4 SLP295 $ =
2017-10-16 01:06 METAR KIAB 160606Z AUTO 00000KT 1SM R01/2400V4000FT HZ CLR 09/03 A3039 RMK AO2
                 VIS 1V9 SLP294 $ =
2017-10-16 00:56 METAR KIAB 160556Z AUTO 00000KT 10SM CLR 09/02 A3039 RMK AO2 SLP294 T00920021
                 10140 20086 401740071 50001 $ =
2017-10-15 23:56 METAR KIAB 160456Z AUTO 00000KT 10SM CLR 10/03 A3040 RMK AO2 VIS 1 1/2 RWY19
                 SLP298 T00950028 $ =
2017-10-15 22:56 METAR KIAB 160356Z AUTO 00000KT 10SM CLR 10/03 A3040 RMK AO2 SLP299 T00970025 $
                 =
2017-10-15 21:56 METAR KIAB 160256Z AUTO 00000KT 10SM CLR 11/02 A3039 RMK AO2 SLP296 T01120020
                 50007 $ =
2017-10-15 20:56 METAR KIAB 160156Z 00000KT 10SM CLR 12/01 A3039 RMK AO2A SLP296 T01190012 $ =
2017-10-15 19:56 METAR KIAB 160056Z AUTO 01004KT 9SM CLR 13/01 A3038 RMK AO2 SLP293 T01280012 $ =

Support USWX by starting your Amazon purchase here.